createdAt,value
2022-09-15T00:01:13.042Z,19.42
2022-09-15T00:03:41.146Z,19.44
2022-09-15T00:06:09.639Z,19.44
2022-09-15T00:08:37.814Z,19.49
2022-09-15T00:11:05.991Z,19.47
2022-09-15T00:13:35.259Z,19.46
2022-09-15T00:16:03.795Z,19.45
2022-09-15T00:18:34.503Z,19.46
2022-09-15T00:21:07.336Z,19.44
2022-09-15T00:23:39.349Z,19.37
2022-09-15T00:26:09.553Z,19.33
2022-09-15T00:28:38.610Z,19.31
2022-09-15T00:31:08.917Z,19.30
2022-09-15T00:33:39.099Z,19.29
2022-09-15T00:36:09.389Z,19.28
2022-09-15T00:38:38.117Z,19.29
2022-09-15T00:41:07.122Z,19.32
2022-09-15T00:43:43.525Z,19.33
2022-09-15T00:46:11.459Z,19.39
2022-09-15T00:48:44.695Z,19.42
2022-09-15T00:51:15.927Z,19.45
2022-09-15T00:53:47.338Z,19.43
2022-09-15T00:56:16.430Z,19.47
2022-09-15T00:58:57.031Z,19.48
2022-09-15T01:01:31.032Z,19.50
2022-09-15T01:03:59.382Z,19.51
2022-09-15T01:06:36.422Z,19.51
2022-09-15T01:09:17.658Z,19.48
2022-09-15T01:11:47.757Z,19.45
2022-09-15T01:14:18.352Z,19.41
2022-09-15T01:17:06.912Z,19.39
2022-09-15T01:19:40.085Z,19.36
2022-09-15T01:22:22.785Z,19.33
2022-09-15T01:25:35.223Z,19.31
2022-09-15T01:28:30.282Z,19.30
2022-09-15T01:31:07.765Z,19.28
2022-09-15T01:33:37.634Z,19.27
2022-09-15T01:36:18.173Z,19.24
2022-09-15T01:38:48.772Z,19.23
2022-09-15T01:41:27.286Z,19.22
2022-09-15T01:43:58.144Z,19.23
2022-09-15T01:46:27.947Z,19.25
2022-09-15T01:49:01.749Z,19.25
2022-09-15T01:51:31.730Z,19.25
2022-09-15T01:54:01.832Z,19.22
2022-09-15T01:56:29.737Z,19.20
2022-09-15T01:58:59.718Z,19.19
2022-09-15T02:01:47.153Z,19.21
2022-09-15T02:04:23.923Z,19.22
2022-09-15T02:07:12.741Z,19.19
2022-09-15T02:10:05.730Z,19.17
2022-09-15T02:13:00.526Z,19.13
2022-09-15T02:15:36.856Z,19.09
2022-09-15T02:18:08.582Z,19.05
2022-09-15T02:20:38.927Z,19.01
2022-09-15T02:23:10.906Z,19.00
2022-09-15T02:25:43.840Z,18.98
2022-09-15T02:28:14.887Z,18.95
2022-09-15T02:30:45.438Z,18.96
2022-09-15T02:33:19.746Z,18.95
2022-09-15T02:35:49.891Z,18.94
2022-09-15T02:38:17.512Z,18.93
2022-09-15T02:40:45.977Z,18.91
2022-09-15T02:43:23.382Z,18.88
2022-09-15T02:45:51.197Z,18.87
2022-09-15T02:48:18.890Z,18.86
2022-09-15T02:50:46.362Z,18.86
2022-09-15T02:53:16.002Z,18.87
2022-09-15T02:55:43.629Z,18.88
2022-09-15T02:58:11.147Z,18.89
2022-09-15T03:00:40.848Z,18.89
2022-09-15T03:03:10.853Z,18.90
2022-09-15T03:05:38.372Z,18.92
2022-09-15T03:08:05.977Z,18.91
2022-09-15T03:10:35.861Z,18.92
2022-09-15T03:13:05.472Z,18.92
2022-09-15T03:15:33.339Z,18.95
2022-09-15T03:18:02.963Z,18.99
2022-09-15T03:20:30.482Z,18.99
2022-09-15T03:22:57.980Z,18.96
2022-09-15T03:25:28.124Z,18.94
2022-09-15T03:27:55.630Z,18.91
2022-09-15T03:30:23.117Z,18.89
2022-09-15T03:32:50.608Z,18.86
2022-09-15T03:35:18.218Z,18.84
2022-09-15T03:37:45.831Z,18.84
2022-09-15T03:40:13.436Z,18.82
2022-09-15T03:42:41.454Z,18.82
2022-09-15T03:45:09.255Z,18.79
2022-09-15T03:47:38.147Z,18.76
2022-09-15T03:50:10.874Z,18.75
2022-09-15T03:52:40.838Z,18.73
2022-09-15T03:55:08.657Z,18.73
2022-09-15T03:57:36.137Z,18.70
2022-09-15T04:00:06.152Z,18.68
2022-09-15T04:02:33.902Z,18.67
2022-09-15T04:05:02.879Z,18.68
2022-09-15T04:07:30.471Z,18.70
2022-09-15T04:09:57.967Z,18.73
2022-09-15T04:12:28.191Z,18.84
2022-09-15T04:14:55.696Z,18.93
2022-09-15T04:17:23.228Z,18.97
2022-09-15T04:19:50.897Z,19.03
2022-09-15T04:22:18.386Z,19.06
2022-09-15T04:24:48.002Z,19.04
2022-09-15T04:27:18.974Z,19.09
2022-09-15T04:29:47.604Z,19.08
2022-09-15T04:32:15.173Z,19.12
2022-09-15T04:34:45.418Z,19.17
2022-09-15T04:37:13.066Z,19.18
2022-09-15T04:39:40.568Z,19.19
2022-09-15T04:42:08.135Z,19.18
2022-09-15T04:44:35.761Z,19.23
2022-09-15T04:47:03.349Z,19.30
2022-09-15T04:49:31.751Z,19.34
2022-09-15T04:51:59.286Z,19.39
2022-09-15T04:54:27.000Z,19.44
2022-09-15T04:56:54.532Z,19.48
2022-09-15T04:59:22.181Z,19.52
2022-09-15T05:01:56.052Z,19.56
2022-09-15T05:04:23.593Z,19.58
2022-09-15T05:06:51.275Z,19.59
2022-09-15T05:09:18.867Z,19.61
2022-09-15T05:11:46.426Z,19.63
2022-09-15T05:14:13.945Z,19.64
2022-09-15T05:16:41.502Z,19.64
2022-09-15T05:19:11.028Z,19.62
2022-09-15T05:21:38.680Z,19.60
2022-09-15T05:24:06.409Z,19.62
2022-09-15T05:26:36.568Z,19.63
2022-09-15T05:29:04.559Z,19.64
2022-09-15T05:31:35.405Z,19.63
2022-09-15T05:34:05.372Z,19.62
2022-09-15T05:36:33.969Z,19.62
2022-09-15T05:39:01.865Z,19.60
2022-09-15T05:41:30.375Z,19.59
2022-09-15T05:43:59.030Z,19.59
2022-09-15T05:46:30.140Z,19.60
2022-09-15T05:48:59.043Z,19.63
2022-09-15T05:51:28.166Z,19.69
2022-09-15T05:53:57.869Z,19.69
2022-09-15T05:56:27.813Z,19.71
2022-09-15T05:58:58.396Z,19.79
2022-09-15T06:01:31.583Z,19.93
2022-09-15T06:04:02.181Z,20.04
2022-09-15T06:06:33.116Z,20.11
2022-09-15T06:09:06.594Z,20.17
2022-09-15T06:11:34.524Z,20.25
2022-09-15T06:14:06.027Z,20.29
2022-09-15T06:16:37.601Z,20.27
2022-09-15T06:19:05.276Z,20.26
2022-09-15T06:21:34.349Z,20.32
2022-09-15T06:24:07.494Z,20.33
2022-09-15T06:26:35.620Z,20.36
2022-09-15T06:29:06.400Z,20.40
2022-09-15T06:31:37.130Z,20.50
2022-09-15T06:34:05.390Z,20.49
2022-09-15T06:36:33.892Z,20.56
2022-09-15T06:39:01.546Z,20.53
2022-09-15T06:41:47.093Z,20.60
2022-09-15T06:44:22.004Z,20.59
2022-09-15T06:46:49.755Z,20.63
2022-09-15T06:49:17.543Z,20.59
2022-09-15T06:51:45.071Z,20.54
2022-09-15T06:54:12.897Z,20.58
2022-09-15T06:56:40.377Z,20.56
2022-09-15T06:59:07.889Z,20.64
2022-09-15T07:01:36.434Z,20.75
2022-09-15T07:04:08.374Z,20.84
2022-09-15T07:06:39.337Z,20.87
2022-09-15T07:09:07.950Z,20.92
2022-09-15T07:11:35.689Z,20.85
2022-09-15T07:14:03.605Z,20.89
2022-09-15T07:16:31.625Z,21.06
2022-09-15T07:19:06.113Z,21.32
2022-09-15T07:21:34.666Z,21.51
2022-09-15T07:24:06.831Z,22.18
2022-09-15T07:26:35.334Z,22.96
2022-09-15T07:29:05.363Z,24.12
2022-09-15T07:31:36.133Z,25.44
2022-09-15T07:34:04.361Z,26.62
2022-09-15T07:36:32.518Z,27.75
2022-09-15T07:39:00.095Z,28.53
2022-09-15T07:41:29.739Z,28.66
2022-09-15T07:43:59.184Z,27.78
2022-09-15T07:46:30.325Z,26.90
2022-09-15T07:48:58.125Z,26.25
2022-09-15T07:51:26.907Z,25.99
2022-09-15T07:53:54.985Z,25.69
2022-09-15T07:56:25.303Z,25.43
2022-09-15T07:58:53.158Z,25.25
2022-09-15T08:01:22.531Z,24.97
2022-09-15T08:03:52.558Z,24.76
2022-09-15T08:06:26.486Z,24.53
2022-09-15T08:08:59.306Z,24.50
2022-09-15T08:11:30.551Z,24.99
2022-09-15T08:14:02.346Z,25.34
2022-09-15T08:16:31.321Z,27.17
2022-09-15T08:18:58.897Z,28.08
2022-09-15T08:21:27.608Z,28.32
2022-09-15T08:23:59.193Z,29.83
2022-09-15T08:26:28.783Z,29.42
2022-09-15T08:28:56.301Z,29.62
2022-09-15T08:31:25.197Z,28.85
2022-09-15T08:33:55.668Z,28.51
2022-09-15T08:36:24.571Z,28.77
2022-09-15T08:38:52.202Z,29.62
2022-09-15T08:41:31.886Z,29.36
2022-09-15T08:44:11.868Z,29.89
2022-09-15T08:46:44.379Z,31.01
2022-09-15T08:49:50.118Z,31.64
2022-09-15T08:52:25.306Z,31.09
2022-09-15T08:54:58.109Z,30.93
2022-09-15T08:57:27.297Z,31.27
2022-09-15T08:59:55.785Z,32.42
2022-09-15T09:03:11.416Z,32.54
2022-09-15T09:06:15.264Z,32.69
2022-09-15T09:09:21.222Z,32.99
2022-09-15T09:12:33.558Z,33.38
2022-09-15T09:15:35.712Z,34.68
2022-09-15T09:18:21.336Z,34.53
2022-09-15T09:21:20.835Z,34.93
2022-09-15T09:23:55.794Z,34.96
2022-09-15T09:26:23.429Z,34.74
2022-09-15T09:28:59.929Z,34.13
2022-09-15T09:31:31.521Z,33.86
2022-09-15T09:34:30.285Z,34.59
2022-09-15T09:37:09.470Z,34.36
2022-09-15T09:39:37.288Z,34.54
2022-09-15T09:42:09.157Z,34.57
2022-09-15T09:44:37.556Z,35.11
2022-09-15T09:47:05.152Z,33.88
2022-09-15T09:49:39.733Z,32.97
2022-09-15T09:52:07.884Z,32.22
2022-09-15T09:54:35.695Z,32.69
2022-09-15T09:57:15.509Z,32.51
2022-09-15T09:59:53.236Z,31.98
2022-09-15T10:02:28.750Z,31.67
2022-09-15T10:05:06.836Z,31.26
2022-09-15T10:07:35.457Z,30.96
2022-09-15T10:10:04.480Z,30.58
2022-09-15T10:12:41.606Z,30.42
2022-09-15T10:15:24.264Z,29.67
2022-09-15T10:17:55.618Z,29.07
2022-09-15T10:20:34.255Z,28.89
2022-09-15T10:23:28.112Z,28.56
2022-09-15T10:26:00.228Z,28.37
2022-09-15T10:28:29.224Z,28.32
2022-09-15T10:30:59.146Z,29.07
2022-09-15T10:33:30.298Z,29.52
2022-09-15T10:36:04.142Z,30.62
2022-09-15T10:38:39.374Z,31.96
2022-09-15T10:41:23.066Z,31.41
2022-09-15T10:44:00.419Z,30.25
2022-09-15T10:46:57.980Z,29.64
2022-09-15T10:49:43.102Z,29.15
2022-09-15T10:52:16.079Z,28.56
2022-09-15T10:55:36.811Z,28.21
2022-09-15T10:58:16.520Z,28.30
2022-09-15T11:01:02.524Z,28.14
2022-09-15T11:03:42.332Z,28.28
2022-09-15T11:06:26.591Z,28.37
2022-09-15T11:09:20.820Z,28.12
2022-09-15T11:12:17.066Z,28.05
2022-09-15T11:14:51.697Z,27.84
2022-09-15T11:17:35.735Z,27.75
2022-09-15T11:20:27.684Z,27.74
2022-09-15T11:23:18.534Z,27.81
2022-09-15T11:26:10.923Z,26.93
2022-09-15T11:29:07.814Z,26.54
2022-09-15T11:31:41.124Z,26.32
2022-09-15T11:34:33.243Z,26.25
2022-09-15T11:37:10.967Z,26.24
2022-09-15T11:39:52.070Z,26.08
2022-09-15T11:42:45.380Z,25.92
2022-09-15T11:45:25.749Z,25.81
2022-09-15T11:48:06.203Z,25.81
2022-09-15T11:50:36.161Z,25.91
2022-09-15T11:53:18.216Z,26.11
2022-09-15T11:55:58.149Z,26.29
2022-09-15T11:59:22.143Z,26.41
2022-09-15T12:02:02.431Z,26.61
2022-09-15T12:04:35.473Z,26.82
2022-09-15T12:07:26.445Z,26.57
2022-09-15T12:09:54.389Z,26.23
2022-09-15T12:12:26.967Z,25.85
2022-09-15T12:14:59.119Z,25.66
2022-09-15T12:17:41.077Z,25.47
2022-09-15T12:20:19.059Z,25.42
2022-09-15T12:23:12.854Z,25.34
2022-09-15T12:26:01.477Z,25.24
2022-09-15T12:28:42.703Z,25.26
2022-09-15T12:31:16.018Z,25.34
2022-09-15T12:33:43.542Z,25.47
2022-09-15T12:36:39.372Z,25.47
2022-09-15T12:39:24.711Z,25.66
2022-09-15T12:41:56.826Z,25.86
2022-09-15T12:44:38.559Z,26.03
2022-09-15T12:47:17.023Z,26.12
2022-09-15T12:49:49.438Z,26.01
2022-09-15T12:52:20.747Z,25.96
2022-09-15T12:54:55.615Z,25.75
2022-09-15T12:57:27.918Z,25.50
2022-09-15T13:00:31.072Z,25.27
2022-09-15T13:02:59.176Z,24.87
2022-09-15T13:05:46.701Z,24.42
2022-09-15T13:08:30.388Z,21.67
2022-09-15T13:11:28.533Z,18.99
2022-09-15T13:14:41.972Z,18.00
2022-09-15T13:17:18.613Z,17.52
2022-09-15T13:19:52.644Z,17.35
2022-09-15T13:22:36.822Z,17.35
2022-09-15T13:25:14.530Z,17.26
2022-09-15T13:27:50.910Z,17.35
2022-09-15T13:30:45.490Z,17.43
2022-09-15T13:33:16.817Z,17.48
2022-09-15T13:35:53.296Z,17.40
2022-09-15T13:38:34.057Z,17.46
2022-09-15T13:41:24.850Z,17.49
2022-09-15T13:44:22.650Z,17.65
2022-09-15T13:47:02.195Z,17.80
2022-09-15T13:49:41.635Z,17.90
2022-09-15T13:52:09.134Z,17.97
2022-09-15T13:54:36.888Z,18.05
2022-09-15T13:57:05.034Z,18.11
2022-09-15T13:59:34.773Z,18.24
2022-09-15T14:02:02.548Z,18.34
2022-09-15T14:04:33.190Z,18.39
2022-09-15T14:07:04.234Z,18.41
2022-09-15T14:09:34.243Z,18.51
2022-09-15T14:12:11.421Z,18.57
2022-09-15T14:14:58.643Z,18.62
2022-09-15T14:17:28.810Z,18.67
2022-09-15T14:20:01.030Z,18.62
2022-09-15T14:22:29.992Z,18.61
2022-09-15T14:24:59.317Z,18.52
2022-09-15T14:27:30.204Z,18.54
2022-09-15T14:30:02.577Z,18.47
2022-09-15T14:32:35.295Z,18.49
2022-09-15T14:35:08.550Z,18.47
2022-09-15T14:37:36.601Z,18.45
2022-09-15T14:40:19.281Z,18.44
2022-09-15T14:42:46.936Z,18.35
2022-09-15T14:48:09.835Z,18.45
2022-09-15T14:50:38.048Z,18.41
2022-09-15T14:53:08.820Z,18.42
2022-09-15T14:56:07.691Z,18.33
2022-09-15T14:58:47.550Z,18.37
2022-09-15T15:01:21.922Z,18.35
2022-09-15T15:04:10.441Z,18.32
2022-09-15T15:06:47.296Z,18.21
2022-09-15T15:09:26.110Z,18.14
2022-09-15T15:12:00.525Z,18.10
2022-09-15T15:14:31.304Z,18.09
2022-09-15T15:17:06.069Z,18.13
2022-09-15T15:19:41.836Z,18.11
2022-09-15T15:22:20.102Z,18.13
2022-09-15T15:24:50.298Z,18.08
2022-09-15T15:27:44.283Z,18.04
2022-09-15T15:30:30.720Z,17.99
2022-09-15T15:33:04.397Z,17.98
2022-09-15T15:35:34.041Z,18.01
2022-09-15T15:38:12.847Z,18.06
2022-09-15T15:40:44.885Z,18.08
2022-09-15T15:43:26.697Z,18.19
2022-09-15T15:46:01.245Z,18.23
2022-09-15T15:48:36.882Z,18.27
2022-09-15T15:51:07.313Z,18.28
2022-09-15T15:53:35.643Z,18.24
2022-09-15T15:56:03.426Z,18.26
2022-09-15T15:58:31.736Z,18.28
2022-09-15T16:00:59.269Z,18.30
2022-09-15T16:03:29.042Z,18.34
2022-09-15T16:06:00.606Z,18.40
2022-09-15T16:08:46.250Z,18.43
2022-09-15T16:11:17.147Z,18.49
2022-09-15T16:13:44.688Z,18.46
2022-09-15T16:16:24.494Z,18.45
2022-09-15T16:18:52.385Z,18.36
2022-09-15T16:21:41.659Z,18.41
2022-09-15T16:24:16.644Z,18.43
2022-09-15T16:26:44.877Z,18.40
2022-09-15T16:29:14.882Z,18.36
2022-09-15T16:31:42.891Z,18.31
2022-09-15T16:34:18.055Z,18.24
2022-09-15T16:36:47.994Z,18.15
2022-09-15T16:39:15.494Z,18.13
2022-09-15T16:41:43.171Z,18.10
2022-09-15T16:44:21.911Z,18.07
2022-09-15T16:46:49.500Z,18.08
2022-09-15T16:49:17.445Z,18.01
2022-09-15T16:51:44.993Z,18.00
2022-09-15T16:54:18.401Z,17.98
2022-09-15T16:56:46.478Z,17.92
2022-09-15T16:59:14.088Z,17.84
2022-09-15T17:01:41.700Z,17.78
2022-09-15T17:04:19.098Z,17.75
2022-09-15T17:06:46.744Z,17.69
2022-09-15T17:09:14.559Z,17.64
2022-09-15T17:11:42.354Z,17.58
2022-09-15T17:14:16.308Z,17.52
2022-09-15T17:16:47.381Z,17.51
2022-09-15T17:19:17.505Z,17.46
2022-09-15T17:21:45.582Z,17.45
2022-09-15T17:24:15.263Z,17.42
2022-09-15T17:26:42.919Z,17.41
2022-09-15T17:29:10.545Z,17.39
2022-09-15T17:31:38.288Z,17.36
2022-09-15T17:34:11.059Z,17.31
2022-09-15T17:36:38.576Z,17.27
2022-09-15T17:39:06.137Z,17.23
2022-09-15T17:41:35.925Z,17.16
2022-09-15T17:44:03.534Z,17.15
2022-09-15T17:46:31.099Z,17.13
2022-09-15T17:48:58.647Z,17.13
2022-09-15T17:51:26.728Z,17.10
2022-09-15T17:53:54.953Z,17.05
2022-09-15T17:56:22.426Z,17.05
2022-09-15T17:58:49.946Z,16.97
2022-09-15T18:01:17.543Z,16.96
2022-09-15T18:03:46.834Z,16.91
2022-09-15T18:06:14.325Z,16.83
2022-09-15T18:08:41.916Z,16.80
2022-09-15T18:11:09.709Z,16.77
2022-09-15T18:13:37.803Z,16.72
2022-09-15T18:16:12.204Z,16.72
2022-09-15T18:18:45.013Z,16.68
2022-09-15T18:21:25.712Z,16.65
2022-09-15T18:23:53.214Z,16.61
2022-09-15T18:26:25.415Z,16.54
2022-09-15T18:28:54.282Z,16.54
2022-09-15T18:31:22.130Z,16.54
2022-09-15T18:33:49.710Z,16.55
2022-09-15T18:36:19.367Z,16.55
2022-09-15T18:38:46.866Z,16.50
2022-09-15T18:41:16.128Z,16.49
2022-09-15T18:43:49.036Z,16.45
2022-09-15T18:46:20.396Z,16.47
2022-09-15T18:48:48.160Z,16.49
2022-09-15T18:51:23.661Z,16.56
2022-09-15T18:53:54.696Z,16.59
2022-09-15T18:56:22.319Z,16.58
2022-09-15T18:58:53.717Z,16.59
2022-09-15T19:01:21.914Z,16.59
2022-09-15T19:03:49.491Z,16.59
2022-09-15T19:06:17.061Z,16.54
2022-09-15T19:08:44.624Z,16.51
2022-09-15T19:11:12.427Z,16.41
2022-09-15T19:13:39.966Z,16.49
2022-09-15T19:16:08.431Z,16.51
2022-09-15T19:18:39.073Z,16.49
2022-09-15T19:21:09.176Z,16.51
2022-09-15T19:23:37.198Z,16.52
2022-09-15T19:26:13.033Z,16.51
2022-09-15T19:28:41.665Z,16.52
2022-09-15T19:31:09.823Z,16.55
2022-09-15T19:33:37.901Z,16.55
2022-09-15T19:36:26.806Z,16.55
2022-09-15T19:38:55.385Z,16.56
2022-09-15T19:41:25.517Z,16.56
2022-09-15T19:43:53.199Z,16.55
2022-09-15T19:46:26.455Z,16.55
2022-09-15T19:48:55.230Z,16.58
2022-09-15T19:51:25.648Z,16.59
2022-09-15T19:53:57.499Z,16.58
2022-09-15T19:56:27.139Z,16.58
2022-09-15T19:58:56.786Z,16.58
2022-09-15T20:01:26.538Z,16.60
2022-09-15T20:03:55.959Z,16.64
2022-09-15T20:06:27.632Z,16.65
2022-09-15T20:08:59.025Z,16.71
2022-09-15T20:11:29.598Z,16.75
2022-09-15T20:13:57.382Z,16.77
2022-09-15T20:16:28.040Z,16.73
2022-09-15T20:18:56.996Z,16.80
2022-09-15T20:21:49.386Z,16.80
2022-09-15T20:24:18.070Z,16.82
2022-09-15T20:26:45.571Z,16.83
2022-09-15T20:29:15.543Z,16.88
2022-09-15T20:31:45.594Z,16.90
2022-09-15T20:34:13.377Z,16.88
2022-09-15T20:36:41.348Z,16.89
2022-09-15T20:39:14.611Z,16.90
2022-09-15T20:41:45.866Z,16.89
2022-09-15T20:44:13.906Z,16.92
2022-09-15T20:46:41.812Z,16.92
2022-09-15T20:49:09.905Z,16.93
2022-09-15T20:51:37.463Z,16.92
2022-09-15T20:54:05.817Z,16.90
2022-09-15T20:56:35.478Z,16.89
2022-09-15T20:59:10.382Z,16.88
2022-09-15T21:01:39.326Z,16.90
2022-09-15T21:04:08.931Z,16.89
2022-09-15T21:06:37.293Z,16.90
2022-09-15T21:09:05.398Z,16.92
2022-09-15T21:11:33.337Z,16.95
2022-09-15T21:14:00.878Z,16.97
2022-09-15T21:16:29.800Z,16.95
2022-09-15T21:18:58.982Z,16.97
2022-09-15T21:21:32.469Z,16.97
2022-09-15T21:24:03.841Z,16.97
2022-09-15T21:26:33.098Z,17.00
2022-09-15T21:29:05.366Z,17.01
2022-09-15T21:31:34.068Z,17.02
2022-09-15T21:34:01.762Z,17.03
2022-09-15T21:36:32.709Z,17.04
2022-09-15T21:39:02.897Z,17.02
2022-09-15T21:41:31.045Z,16.99
2022-09-15T21:43:59.324Z,16.95
2022-09-15T21:46:29.555Z,16.93
2022-09-15T21:48:58.806Z,16.93
2022-09-15T21:51:28.266Z,16.93
2022-09-15T21:53:57.770Z,16.90
2022-09-15T21:56:26.546Z,16.87
2022-09-15T21:58:54.309Z,16.86
2022-09-15T22:01:23.555Z,16.87
2022-09-15T22:03:56.173Z,16.86
2022-09-15T22:06:27.698Z,16.82
2022-09-15T22:08:55.738Z,16.79
2022-09-15T22:11:26.668Z,16.77
2022-09-15T22:13:55.692Z,16.75
2022-09-15T22:16:25.730Z,16.74
2022-09-15T22:18:53.772Z,16.72
2022-09-15T22:21:23.829Z,16.69
2022-09-15T22:23:52.831Z,16.65
2022-09-15T22:26:26.429Z,16.63
2022-09-15T22:28:54.426Z,16.61
2022-09-15T22:31:24.949Z,16.61
2022-09-15T22:33:53.704Z,16.59
2022-09-15T22:36:29.566Z,16.59
2022-09-15T22:39:04.408Z,16.61
2022-09-15T22:41:34.734Z,16.60
2022-09-15T22:44:02.610Z,16.60
2022-09-15T22:46:30.095Z,16.60
2022-09-15T22:48:57.961Z,16.59
2022-09-15T22:51:30.382Z,16.58
2022-09-15T22:53:58.463Z,16.57
2022-09-15T22:56:27.065Z,16.49
2022-09-15T22:58:55.294Z,16.47
2022-09-15T23:01:27.968Z,16.44
2022-09-15T23:03:59.970Z,16.37
2022-09-15T23:06:30.612Z,16.39
2022-09-15T23:09:00.557Z,16.38
2022-09-15T23:11:29.974Z,16.41
2022-09-15T23:13:57.603Z,16.41
2022-09-15T23:16:30.558Z,16.39
2022-09-15T23:18:58.435Z,16.36
2022-09-15T23:21:26.545Z,16.32
2022-09-15T23:23:55.176Z,16.30
2022-09-15T23:26:24.947Z,16.28
2022-09-15T23:28:52.755Z,16.29
2022-09-15T23:31:21.527Z,16.26
2022-09-15T23:33:50.012Z,16.25
2022-09-15T23:36:21.167Z,16.22
2022-09-15T23:38:49.989Z,16.24
2022-09-15T23:41:18.909Z,16.22
2022-09-15T23:43:47.199Z,16.18
2022-09-15T23:46:15.179Z,16.18
2022-09-15T23:48:43.051Z,16.14
2022-09-15T23:51:10.733Z,16.13
2022-09-15T23:53:40.633Z,16.11
2022-09-15T23:56:10.392Z,16.11
2022-09-15T23:58:38.189Z,16.12
